createdAt,value
2023-01-01T00:00:35.181Z,1005.16
2023-01-01T00:01:35.274Z,1005.23
2023-01-01T00:02:37.200Z,1005.24
2023-01-01T00:03:35.203Z,1005.28
2023-01-01T00:04:35.131Z,1005.32
2023-01-01T00:05:35.141Z,1005.35
2023-01-01T00:06:35.107Z,1005.36
2023-01-01T00:07:35.122Z,1005.43
2023-01-01T00:08:35.128Z,1005.40
2023-01-01T00:09:35.104Z,1005.30
2023-01-01T00:10:35.090Z,1005.40
2023-01-01T00:11:35.075Z,1005.41
2023-01-01T00:12:35.083Z,1005.26
2023-01-01T00:13:35.024Z,1005.22
2023-01-01T00:14:35.071Z,1005.28
2023-01-01T00:15:35.013Z,1005.28
2023-01-01T00:16:35.031Z,1005.15
2023-01-01T00:17:34.977Z,1005.24
2023-01-01T00:18:35.014Z,1005.22
2023-01-01T00:19:34.971Z,1005.27
2023-01-01T00:20:35.637Z,1005.28
2023-01-01T00:21:34.953Z,1005.26
2023-01-01T00:22:53.955Z,1005.28
2023-01-01T00:23:35.928Z,1005.33
2023-01-01T00:24:34.903Z,1005.24
2023-01-01T00:25:34.925Z,1005.21
2023-01-01T00:26:35.779Z,1005.24
2023-01-01T00:27:34.904Z,1005.25
2023-01-01T00:28:34.873Z,1005.25
2023-01-01T00:29:34.877Z,1005.20
2023-01-01T00:30:34.839Z,1005.16
2023-01-01T00:31:34.912Z,1005.17
2023-01-01T00:32:34.883Z,1005.28
2023-01-01T00:33:34.798Z,1005.20
2023-01-01T00:34:34.826Z,1005.17
2023-01-01T00:35:34.784Z,1005.17
2023-01-01T00:36:34.764Z,1005.20
2023-01-01T00:37:34.773Z,1005.20
2023-01-01T00:38:34.758Z,1005.18
2023-01-01T00:39:34.725Z,1005.16
2023-01-01T00:40:34.730Z,1005.18
2023-01-01T00:41:34.709Z,1005.16
2023-01-01T00:42:34.710Z,1005.24
2023-01-01T00:43:34.719Z,1005.25
2023-01-01T00:44:34.687Z,1005.33
2023-01-01T00:45:34.759Z,1005.35
2023-01-01T00:46:34.647Z,1005.32
2023-01-01T00:47:34.655Z,1005.42
2023-01-01T00:48:34.740Z,1005.47
2023-01-01T00:49:34.613Z,1005.41
2023-01-01T00:50:34.723Z,1005.50
2023-01-01T00:51:37.150Z,1005.50
2023-01-01T00:52:34.577Z,1005.49
2023-01-01T00:53:34.598Z,1005.54
2023-01-01T00:54:34.573Z,1005.50
2023-01-01T00:55:34.588Z,1005.43
2023-01-01T00:56:34.533Z,1005.44
2023-01-01T00:57:34.516Z,1005.39
2023-01-01T00:58:34.536Z,1005.46
2023-01-01T00:59:34.554Z,1005.53
2023-01-01T01:00:34.494Z,1005.38
2023-01-01T01:01:34.638Z,1005.38
2023-01-01T01:02:34.658Z,1005.40
2023-01-01T01:03:34.478Z,1005.40
2023-01-01T01:04:34.482Z,1005.38
2023-01-01T01:05:34.475Z,1005.31
2023-01-01T01:06:34.474Z,1005.33
2023-01-01T01:07:34.410Z,1005.37
2023-01-01T01:08:34.408Z,1005.28
2023-01-01T01:09:34.413Z,1005.36
2023-01-01T01:10:34.380Z,1005.34
2023-01-01T01:11:34.377Z,1005.21
2023-01-01T01:12:34.387Z,1005.24
2023-01-01T01:13:34.362Z,1005.23
2023-01-01T01:14:34.348Z,1005.25
2023-01-01T01:15:34.339Z,1005.22
2023-01-01T01:16:34.341Z,1005.14
2023-01-01T01:17:34.307Z,1005.11
2023-01-01T01:18:34.295Z,1005.22
2023-01-01T01:19:34.289Z,1005.12
2023-01-01T01:20:34.272Z,1005.20
2023-01-01T01:21:34.300Z,1005.25
2023-01-01T01:22:34.272Z,1005.17
2023-01-01T01:23:34.251Z,1005.15
2023-01-01T01:24:34.225Z,1005.13
2023-01-01T01:25:34.213Z,1005.12
2023-01-01T01:26:34.199Z,1004.95
2023-01-01T01:27:34.220Z,1005.20
2023-01-01T01:28:34.182Z,1005.18
2023-01-01T01:29:34.176Z,1005.35
2023-01-01T01:30:34.211Z,1005.22
2023-01-01T01:31:34.156Z,1005.27
2023-01-01T01:32:34.145Z,1005.21
2023-01-01T01:33:34.137Z,1005.20
2023-01-01T01:34:34.114Z,1005.40
2023-01-01T01:35:34.097Z,1005.47
2023-01-01T01:36:34.104Z,1005.33
2023-01-01T01:37:34.070Z,1005.42
2023-01-01T01:38:34.083Z,1005.56
2023-01-01T01:39:34.062Z,1005.58
2023-01-01T01:40:34.039Z,1005.62
2023-01-01T01:41:34.016Z,1005.63
2023-01-01T01:42:34.018Z,1005.52
2023-01-01T01:43:34.008Z,1005.57
2023-01-01T01:44:33.999Z,1005.64
2023-01-01T01:45:33.969Z,1005.57
2023-01-01T01:46:34.027Z,1005.80
2023-01-01T01:47:33.959Z,1005.67
2023-01-01T01:48:33.965Z,1005.30
2023-01-01T01:49:33.954Z,1005.73
2023-01-01T01:50:33.955Z,1005.72
2023-01-01T01:51:33.918Z,1005.49
2023-01-01T01:52:33.920Z,1005.62
2023-01-01T01:53:33.915Z,1005.74
2023-01-01T01:54:33.901Z,1005.82
2023-01-01T01:55:33.884Z,1005.74
2023-01-01T01:56:33.886Z,1005.79
2023-01-01T01:57:33.854Z,1005.89
2023-01-01T01:58:33.840Z,1005.94
2023-01-01T01:59:33.843Z,1005.87
2023-01-01T02:00:33.837Z,1005.90
2023-01-01T02:01:33.889Z,1005.79
2023-01-01T02:02:34.024Z,1005.77
2023-01-01T02:03:33.765Z,1005.88
2023-01-01T02:04:33.770Z,1005.97
2023-01-01T02:05:33.783Z,1005.92
2023-01-01T02:06:33.759Z,1005.86
2023-01-01T02:07:33.741Z,1005.87
2023-01-01T02:08:33.713Z,1005.87
2023-01-01T02:09:33.723Z,1005.89
2023-01-01T02:10:33.733Z,1005.89
2023-01-01T02:11:33.679Z,1005.78
2023-01-01T02:12:33.678Z,1005.85
2023-01-01T02:13:33.654Z,1005.92
2023-01-01T02:14:33.665Z,1005.71
2023-01-01T02:15:33.749Z,1005.88
2023-01-01T02:16:33.634Z,1005.84
2023-01-01T02:17:38.765Z,1005.89
2023-01-01T02:18:34.622Z,1005.93
2023-01-01T02:19:33.609Z,1005.88
2023-01-01T02:20:33.607Z,1005.94
2023-01-01T02:21:33.603Z,1005.95
2023-01-01T02:22:33.636Z,1005.95
2023-01-01T02:23:33.551Z,1005.88
2023-01-01T02:24:33.532Z,1005.91
2023-01-01T02:25:33.536Z,1005.90
2023-01-01T02:26:33.550Z,1005.91
2023-01-01T02:27:33.491Z,1005.96
2023-01-01T02:28:33.479Z,1006.01
2023-01-01T02:29:33.476Z,1005.98
2023-01-01T02:30:33.480Z,1006.08
2023-01-01T02:31:33.504Z,1006.11
2023-01-01T02:32:33.451Z,1006.03
2023-01-01T02:33:33.439Z,1006.01
2023-01-01T02:34:33.457Z,1005.82
2023-01-01T02:35:33.440Z,1005.93
2023-01-01T02:36:33.415Z,1005.91
2023-01-01T02:37:33.388Z,1005.96
2023-01-01T02:38:33.388Z,1006.03
2023-01-01T02:39:33.385Z,1005.98
2023-01-01T02:40:33.368Z,1006.05
2023-01-01T02:41:33.358Z,1006.05
2023-01-01T02:42:33.377Z,1006.07
2023-01-01T02:43:33.327Z,1006.02
2023-01-01T02:44:33.342Z,1006.04
2023-01-01T02:45:33.316Z,1006.07
2023-01-01T02:46:33.335Z,1006.12
2023-01-01T02:47:33.282Z,1006.11
2023-01-01T02:48:33.279Z,1006.05
2023-01-01T02:49:33.250Z,1006.09
2023-01-01T02:50:33.248Z,1006.06
2023-01-01T02:51:33.222Z,1006.09
2023-01-01T02:52:33.219Z,1006.11
2023-01-01T02:53:33.197Z,1006.04
2023-01-01T02:54:33.212Z,1006.13
2023-01-01T02:55:33.291Z,1006.09
2023-01-01T02:56:33.180Z,1006.15
2023-01-01T02:57:33.169Z,1006.04
2023-01-01T02:58:33.173Z,1006.10
2023-01-01T02:59:33.154Z,1006.08
2023-01-01T03:00:33.138Z,1006.10
2023-01-01T03:01:33.234Z,1006.12
2023-01-01T03:02:33.239Z,1006.03
2023-01-01T03:03:33.231Z,1006.07
2023-01-01T03:04:33.078Z,1006.05
2023-01-01T03:05:33.075Z,1006.04
2023-01-01T03:06:33.060Z,1006.09
2023-01-01T03:07:33.042Z,1006.03
2023-01-01T03:08:33.055Z,1006.04
2023-01-01T03:09:33.025Z,1006.11
2023-01-01T03:10:33.035Z,1006.01
2023-01-01T03:11:33.006Z,1006.06
2023-01-01T03:12:33.003Z,1006.12
2023-01-01T03:13:32.968Z,1006.18
2023-01-01T03:14:33.000Z,1006.15
2023-01-01T03:15:33.009Z,1006.05
2023-01-01T03:16:32.969Z,1006.09
2023-01-01T03:17:32.923Z,1006.05
2023-01-01T03:18:32.918Z,1006.07
2023-01-01T03:19:32.931Z,1006.02
2023-01-01T03:20:32.894Z,1006.07
2023-01-01T03:21:32.932Z,1006.11
2023-01-01T03:22:32.866Z,1006.08
2023-01-01T03:23:32.891Z,1006.07
2023-01-01T03:24:32.872Z,1006.04
2023-01-01T03:25:32.848Z,1006.08
2023-01-01T03:26:32.830Z,1006.10
2023-01-01T03:27:32.813Z,1006.03
2023-01-01T03:28:32.819Z,1006.03
2023-01-01T03:29:32.822Z,1005.97
2023-01-01T03:30:32.823Z,1005.99
2023-01-01T03:31:32.839Z,1005.99
2023-01-01T03:32:32.753Z,1005.99
2023-01-01T03:33:32.761Z,1005.98
2023-01-01T03:34:32.776Z,1006.06
2023-01-01T03:35:32.725Z,1006.06
2023-01-01T03:36:32.725Z,1006.08
2023-01-01T03:37:32.709Z,1006.14
2023-01-01T03:38:32.699Z,1006.21
2023-01-01T03:39:32.684Z,1006.23
2023-01-01T03:40:32.708Z,1006.20
2023-01-01T03:41:32.664Z,1006.12
2023-01-01T03:42:32.645Z,1006.21
2023-01-01T03:43:32.641Z,1006.26
2023-01-01T03:44:32.618Z,1006.32
2023-01-01T03:45:32.600Z,1006.34
2023-01-01T03:46:32.644Z,1006.31
2023-01-01T03:47:32.610Z,1006.31
2023-01-01T03:48:32.608Z,1006.27
2023-01-01T03:49:32.599Z,1006.25
2023-01-01T03:50:32.563Z,1006.23
2023-01-01T03:51:32.545Z,1006.19
2023-01-01T03:52:32.535Z,1006.15
2023-01-01T03:53:32.550Z,1006.24
2023-01-01T03:54:32.505Z,1006.21
2023-01-01T03:55:32.533Z,1006.24
2023-01-01T03:56:32.477Z,1006.22
2023-01-01T03:57:32.489Z,1006.26
2023-01-01T03:58:32.467Z,1006.30
2023-01-01T03:59:32.470Z,1006.34
2023-01-01T04:00:32.430Z,1006.36
2023-01-01T04:01:32.582Z,1006.30
2023-01-01T04:02:32.574Z,1006.33
2023-01-01T04:03:32.414Z,1006.29
2023-01-01T04:04:32.401Z,1006.29
2023-01-01T04:05:32.386Z,1006.27
2023-01-01T04:06:32.389Z,1006.31
2023-01-01T04:07:32.360Z,1006.31
2023-01-01T04:08:32.359Z,1006.36
2023-01-01T04:09:32.343Z,1006.35
2023-01-01T04:10:32.338Z,1006.30
2023-01-01T04:11:32.332Z,1006.26
2023-01-01T04:12:32.328Z,1006.16
2023-01-01T04:13:32.303Z,1006.11
2023-01-01T04:14:32.275Z,1006.11
2023-01-01T04:15:32.270Z,1006.19
2023-01-01T04:16:32.332Z,1006.12
2023-01-01T04:17:32.255Z,1006.14
2023-01-01T04:18:32.263Z,1006.11
2023-01-01T04:19:32.228Z,1006.06
2023-01-01T04:20:32.242Z,1006.19
2023-01-01T04:21:32.211Z,1006.19
2023-01-01T04:22:32.194Z,1006.16
2023-01-01T04:23:32.175Z,1006.14
2023-01-01T04:24:32.169Z,1006.07
2023-01-01T04:25:32.190Z,1006.13
2023-01-01T04:26:32.158Z,1006.11
2023-01-01T04:27:32.127Z,1006.10
2023-01-01T04:28:32.133Z,1006.07
2023-01-01T04:29:32.128Z,1006.09
2023-01-01T04:30:32.098Z,1006.12
2023-01-01T04:31:32.075Z,1006.12
2023-01-01T04:32:32.106Z,1006.11
2023-01-01T04:33:32.065Z,1006.09
2023-01-01T04:34:32.092Z,1006.17
2023-01-01T04:35:32.083Z,1006.14
2023-01-01T04:36:32.060Z,1006.18
2023-01-01T04:37:32.036Z,1006.16
2023-01-01T04:38:32.013Z,1006.19
2023-01-01T04:39:32.010Z,1006.17
2023-01-01T04:40:32.014Z,1006.18
2023-01-01T04:41:31.962Z,1006.16
2023-01-01T04:42:31.978Z,1006.24
2023-01-01T04:43:31.955Z,1006.28
2023-01-01T04:44:31.938Z,1006.32
2023-01-01T04:45:31.982Z,1006.29
2023-01-01T04:46:31.942Z,1006.26
2023-01-01T04:47:31.904Z,1006.35
2023-01-01T04:48:31.941Z,1006.29
2023-01-01T04:49:31.892Z,1006.42
2023-01-01T04:50:31.888Z,1006.35
2023-01-01T04:51:31.859Z,1006.41
2023-01-01T04:52:31.868Z,1006.42
2023-01-01T04:53:31.831Z,1006.43
2023-01-01T04:54:31.849Z,1006.36
2023-01-01T04:55:31.801Z,1006.40
2023-01-01T04:56:31.809Z,1006.43
2023-01-01T04:57:31.796Z,1006.40
2023-01-01T04:58:31.788Z,1006.36
2023-01-01T04:59:31.797Z,1006.41
2023-01-01T05:00:31.779Z,1006.45
2023-01-01T05:01:31.893Z,1006.43
2023-01-01T05:02:31.806Z,1006.38
2023-01-01T05:03:31.733Z,1006.50
2023-01-01T05:04:31.732Z,1006.54
2023-01-01T05:05:31.709Z,1006.53
2023-01-01T05:06:31.725Z,1006.52
2023-01-01T05:07:31.673Z,1006.56
2023-01-01T05:08:31.693Z,1006.52
2023-01-01T05:09:31.663Z,1006.57
2023-01-01T05:10:31.668Z,1006.65
2023-01-01T05:11:31.623Z,1006.64
2023-01-01T05:12:31.632Z,1006.65
2023-01-01T05:13:31.605Z,1006.71
2023-01-01T05:14:31.606Z,1006.42
2023-01-01T05:15:31.599Z,1006.59
2023-01-01T05:16:31.604Z,1006.60
2023-01-01T05:17:31.602Z,1006.55
2023-01-01T05:18:31.622Z,1006.51
2023-01-01T05:19:31.541Z,1006.49
2023-01-01T05:20:31.533Z,1006.45
2023-01-01T05:21:31.537Z,1006.52
2023-01-01T05:22:31.539Z,1006.54
2023-01-01T05:23:31.635Z,1006.52
2023-01-01T05:24:31.513Z,1006.50
2023-01-01T05:25:31.461Z,1006.57
2023-01-01T05:26:31.460Z,1006.48
2023-01-01T05:27:31.453Z,1006.38
2023-01-01T05:28:31.446Z,1006.57
2023-01-01T05:29:31.456Z,1006.55
2023-01-01T05:30:31.413Z,1006.59
2023-01-01T05:31:31.467Z,1006.62
2023-01-01T05:32:31.416Z,1006.69
2023-01-01T05:33:31.397Z,1006.65
2023-01-01T05:35:00.686Z,1006.78
2023-01-01T05:36:00.694Z,1006.78
2023-01-01T05:37:00.708Z,1006.89
2023-01-01T05:38:00.682Z,1006.93
2023-01-01T05:39:00.641Z,1006.98
2023-01-01T05:40:00.641Z,1007.01
2023-01-01T05:41:00.641Z,1007.00
2023-01-01T05:42:00.619Z,1006.98
2023-01-01T05:43:00.614Z,1006.98
2023-01-01T05:44:00.597Z,1007.04
2023-01-01T05:45:00.589Z,1006.98
2023-01-01T05:46:00.687Z,1006.96
2023-01-01T05:47:00.566Z,1006.92
2023-01-01T05:48:00.538Z,1006.85
2023-01-01T05:49:00.534Z,1006.80
2023-01-01T05:50:00.545Z,1006.81
2023-01-01T05:51:00.520Z,1006.82
2023-01-01T05:52:00.518Z,1006.85
2023-01-01T05:53:00.498Z,1006.93
2023-01-01T05:54:00.505Z,1006.88
2023-01-01T05:55:00.481Z,1006.89
2023-01-01T05:56:00.458Z,1006.83
2023-01-01T05:57:00.481Z,1006.92
2023-01-01T05:58:00.443Z,1006.96
2023-01-01T05:59:00.418Z,1006.96
2023-01-01T06:00:00.398Z,1007.02
2023-01-01T06:01:00.432Z,1007.06
2023-01-01T06:02:00.580Z,1007.03
2023-01-01T06:03:00.369Z,1007.01
2023-01-01T06:04:00.529Z,1006.99
2023-01-01T06:05:00.373Z,1006.96
2023-01-01T06:06:00.360Z,1007.01
2023-01-01T06:07:00.331Z,1007.13
2023-01-01T06:08:00.370Z,1007.18
2023-01-01T06:09:00.330Z,1007.22
2023-01-01T06:10:00.335Z,1007.24
2023-01-01T06:11:00.306Z,1007.17
2023-01-01T06:12:00.285Z,1007.20
2023-01-01T06:13:00.275Z,1007.20
2023-01-01T06:14:00.260Z,1007.18
2023-01-01T06:15:00.245Z,1007.37
2023-01-01T06:16:00.240Z,1007.31
2023-01-01T06:17:00.352Z,1007.30
2023-01-01T06:18:00.207Z,1007.28
2023-01-01T06:19:00.228Z,1007.24
2023-01-01T06:20:00.184Z,1007.22
2023-01-01T06:21:00.163Z,1007.24
2023-01-01T06:22:00.161Z,1007.20
2023-01-01T06:23:00.152Z,1007.22
2023-01-01T06:24:00.155Z,1007.35
2023-01-01T06:25:00.138Z,1007.32
2023-01-01T06:26:00.120Z,1007.32
2023-01-01T06:27:00.112Z,1007.40
2023-01-01T06:28:00.107Z,1007.32
2023-01-01T06:29:00.130Z,1007.27
2023-01-01T06:30:00.117Z,1007.13
2023-01-01T06:31:00.099Z,1007.21
2023-01-01T06:32:00.044Z,1007.22
2023-01-01T06:33:00.051Z,1007.25
2023-01-01T06:34:00.036Z,1007.22
2023-01-01T06:35:00.038Z,1007.24
2023-01-01T06:36:00.000Z,1007.30
2023-01-01T06:37:06.494Z,1007.32
2023-01-01T06:38:01.024Z,1007.36
2023-01-01T06:38:59.958Z,1007.39
2023-01-01T06:39:59.947Z,1007.36
2023-01-01T06:40:59.973Z,1007.44
2023-01-01T06:41:59.961Z,1007.37
2023-01-01T06:42:59.927Z,1007.41
2023-01-01T06:43:59.913Z,1007.48
2023-01-01T06:44:59.901Z,1007.52
2023-01-01T06:45:59.953Z,1007.53
2023-01-01T06:46:59.892Z,1007.58
2023-01-01T06:47:59.867Z,1007.56
2023-01-01T06:48:59.847Z,1007.63
2023-01-01T06:49:59.842Z,1007.65
2023-01-01T06:50:59.815Z,1007.68
2023-01-01T06:51:59.844Z,1007.67
2023-01-01T06:52:59.800Z,1007.71
2023-01-01T06:53:59.793Z,1007.70
2023-01-01T06:54:59.784Z,1007.66
2023-01-01T06:55:59.798Z,1007.64
2023-01-01T06:56:59.785Z,1007.71
2023-01-01T06:57:59.849Z,1007.70
2023-01-01T06:58:59.734Z,1007.70
2023-01-01T06:59:59.728Z,1007.73
2023-01-01T07:01:04.805Z,1007.76
2023-01-01T07:02:00.833Z,1007.73
2023-01-01T07:03:00.005Z,1007.78
2023-01-01T07:03:59.681Z,1007.74
2023-01-01T07:04:59.716Z,1007.67
2023-01-01T07:05:59.661Z,1007.64
2023-01-01T07:06:59.662Z,1007.60
2023-01-01T07:07:59.649Z,1007.63
2023-01-01T07:08:59.645Z,1007.59
2023-01-01T07:09:59.610Z,1007.58
2023-01-01T07:10:59.627Z,1007.57
2023-01-01T07:11:59.587Z,1007.59
2023-01-01T07:12:59.563Z,1007.58
2023-01-01T07:13:59.621Z,1007.57
2023-01-01T07:14:59.537Z,1007.58
2023-01-01T07:15:59.642Z,1007.61
2023-01-01T07:16:59.514Z,1007.54
2023-01-01T07:17:59.504Z,1007.66
2023-01-01T07:18:59.520Z,1007.67
2023-01-01T07:19:59.492Z,1007.74
2023-01-01T07:20:59.471Z,1007.76
2023-01-01T07:21:59.487Z,1007.79
2023-01-01T07:22:59.473Z,1007.80
2023-01-01T07:23:59.516Z,1007.75
2023-01-01T07:24:59.452Z,1007.75
2023-01-01T07:25:59.435Z,1007.75
2023-01-01T07:26:59.404Z,1007.85
2023-01-01T07:27:59.417Z,1007.89
2023-01-01T07:29:06.271Z,1008.00
2023-01-01T07:30:00.409Z,1008.02
2023-01-01T07:30:59.404Z,1008.01
2023-01-01T07:31:59.353Z,1008.11
2023-01-01T07:32:59.351Z,1008.07
2023-01-01T07:33:59.325Z,1008.06
2023-01-01T07:34:59.345Z,1007.99
2023-01-01T07:35:59.317Z,1008.03
2023-01-01T07:36:59.315Z,1008.10
2023-01-01T07:37:59.305Z,1008.04
2023-01-01T07:38:59.275Z,1008.12
2023-01-01T07:39:59.282Z,1008.11
2023-01-01T07:40:59.248Z,1008.19
2023-01-01T07:41:59.251Z,1008.22
2023-01-01T07:42:59.230Z,1008.26
2023-01-01T07:43:59.259Z,1008.12
2023-01-01T07:44:59.193Z,1008.27
2023-01-01T07:45:59.307Z,1008.28
2023-01-01T07:46:59.188Z,1008.23
2023-01-01T07:47:59.166Z,1008.33
2023-01-01T07:48:59.182Z,1008.30
2023-01-01T07:49:59.176Z,1008.30
2023-01-01T07:50:59.144Z,1008.22
2023-01-01T07:51:59.128Z,1008.31
2023-01-01T07:52:59.120Z,1008.28
2023-01-01T07:54:05.784Z,1008.30
2023-01-01T07:55:00.178Z,1008.28
2023-01-01T07:55:59.088Z,1008.34
2023-01-01T07:56:59.067Z,1008.34
2023-01-01T07:57:59.063Z,1008.34
2023-01-01T07:58:59.064Z,1008.40
2023-01-01T07:59:59.060Z,1008.43
2023-01-01T08:00:59.044Z,1008.46
2023-01-01T08:01:59.194Z,1008.47
2023-01-01T08:02:59.235Z,1008.50
2023-01-01T08:03:58.986Z,1008.48
2023-01-01T08:04:58.972Z,1008.52
2023-01-01T08:05:58.975Z,1008.53
2023-01-01T08:06:58.972Z,1008.53
2023-01-01T08:07:58.938Z,1008.56
2023-01-01T08:08:58.937Z,1008.58
2023-01-01T08:09:58.934Z,1008.65
2023-01-01T08:11:03.561Z,1008.63
2023-01-01T08:11:59.888Z,1008.61
2023-01-01T08:12:58.879Z,1008.65
2023-01-01T08:13:58.863Z,1008.69
2023-01-01T08:14:58.901Z,1008.61
2023-01-01T08:15:58.955Z,1008.67
2023-01-01T08:16:58.859Z,1008.62
2023-01-01T08:17:58.846Z,1008.62
2023-01-01T08:18:58.841Z,1008.47
2023-01-01T08:19:58.803Z,1008.54
2023-01-01T08:20:58.806Z,1008.56
2023-01-01T08:21:58.802Z,1008.59
2023-01-01T08:23:04.625Z,1008.55
2023-01-01T08:23:59.764Z,1008.61
2023-01-01T08:24:58.747Z,1008.62
2023-01-01T08:25:58.739Z,1008.64
2023-01-01T08:26:58.727Z,1008.62
2023-01-01T08:27:58.706Z,1008.64
2023-01-01T08:28:58.723Z,1008.66
2023-01-01T08:29:58.704Z,1008.69
2023-01-01T08:30:58.739Z,1008.69
2023-01-01T08:31:58.663Z,1008.68
2023-01-01T08:32:58.650Z,1008.72
2023-01-01T08:33:58.706Z,1008.66
2023-01-01T08:34:58.628Z,1008.76
2023-01-01T08:35:58.652Z,1008.80
2023-01-01T08:36:58.602Z,1008.77
2023-01-01T08:37:58.596Z,1008.68
2023-01-01T08:38:58.604Z,1008.75
2023-01-01T08:39:58.610Z,1008.73
2023-01-01T08:40:58.563Z,1008.76
2023-01-01T08:41:58.546Z,1008.80
2023-01-01T08:42:58.533Z,1008.78
2023-01-01T08:43:58.536Z,1008.81
2023-01-01T08:44:58.533Z,1008.76
2023-01-01T08:45:58.523Z,1008.87
2023-01-01T08:46:58.557Z,1008.93
2023-01-01T08:47:58.492Z,1009.00
2023-01-01T08:48:58.513Z,1008.96
2023-01-01T08:49:58.571Z,1008.95
2023-01-01T08:50:58.450Z,1008.93
2023-01-01T08:51:58.450Z,1008.96
2023-01-01T08:52:58.449Z,1009.01
2023-01-01T08:53:58.429Z,1008.99
2023-01-01T08:54:58.417Z,1008.98
2023-01-01T08:55:58.400Z,1009.03
2023-01-01T08:56:58.400Z,1009.13
2023-01-01T08:57:58.380Z,1009.14
2023-01-01T08:59:03.818Z,1009.22
2023-01-01T08:59:59.351Z,1009.22
2023-01-01T09:00:58.327Z,1009.19
2023-01-01T09:01:58.533Z,1009.20
2023-01-01T09:02:58.431Z,1009.13
2023-01-01T09:03:58.328Z,1009.07
2023-01-01T09:04:58.288Z,1009.06
2023-01-01T09:05:58.320Z,1009.07
2023-01-01T09:06:58.291Z,1009.04
2023-01-01T09:07:58.271Z,1009.08
2023-01-01T09:08:58.250Z,1009.04
2023-01-01T09:09:58.235Z,1009.02
2023-01-01T09:10:58.226Z,1009.06
2023-01-01T09:11:58.213Z,1009.09
2023-01-01T09:12:58.214Z,1009.00
2023-01-01T09:13:58.198Z,1009.04
2023-01-01T09:14:58.197Z,1009.03
2023-01-01T09:15:58.235Z,1009.04
2023-01-01T09:16:58.232Z,1009.01
2023-01-01T09:17:58.172Z,1009.04
2023-01-01T09:18:58.138Z,1008.95
2023-01-01T09:19:58.141Z,1009.00
2023-01-01T09:20:58.119Z,1009.05
2023-01-01T09:21:58.110Z,1009.02
2023-01-01T09:23:04.021Z,1009.07
2023-01-01T09:23:59.095Z,1009.11
2023-01-01T09:24:58.084Z,1009.19
2023-01-01T09:25:58.052Z,1009.14
2023-01-01T09:26:58.051Z,1009.18
2023-01-01T09:27:58.025Z,1009.14
2023-01-01T09:28:58.040Z,1009.05
2023-01-01T09:29:58.035Z,1009.04
2023-01-01T09:30:57.988Z,1009.07
2023-01-01T09:31:58.031Z,1009.20
2023-01-01T09:32:57.977Z,1009.14
2023-01-01T09:33:57.967Z,1009.18
2023-01-01T09:34:57.960Z,1009.22
2023-01-01T09:35:57.959Z,1009.31
2023-01-01T09:36:57.923Z,1009.33
2023-01-01T09:37:57.945Z,1009.29
2023-01-01T09:38:57.899Z,1009.35
2023-01-01T09:39:57.895Z,1009.39
2023-01-01T09:40:57.954Z,1009.40
2023-01-01T09:41:57.889Z,1009.36
2023-01-01T09:42:57.846Z,1009.49
2023-01-01T09:43:57.865Z,1009.43
2023-01-01T09:44:57.835Z,1009.51
2023-01-01T09:45:57.903Z,1009.55
2023-01-01T09:46:57.813Z,1009.56
2023-01-01T09:47:57.834Z,1009.51
2023-01-01T09:48:57.800Z,1009.52
2023-01-01T09:49:57.800Z,1009.50
2023-01-01T09:50:57.772Z,1009.57
2023-01-01T09:51:58.453Z,1009.51
2023-01-01T09:52:57.743Z,1009.51
2023-01-01T09:53:57.746Z,1009.45
2023-01-01T09:54:57.724Z,1009.51
2023-01-01T09:55:57.728Z,1009.56
2023-01-01T09:56:57.694Z,1009.61
2023-01-01T09:57:57.687Z,1009.58
2023-01-01T09:58:57.681Z,1009.65
2023-01-01T09:59:57.653Z,1009.65
2023-01-01T10:00:57.684Z,1009.64
2023-01-01T10:01:57.778Z,1009.66
2023-01-01T10:02:57.643Z,1009.69
2023-01-01T10:03:57.685Z,1009.78
2023-01-01T10:04:57.647Z,1009.65
2023-01-01T10:05:57.616Z,1009.60
2023-01-01T10:06:57.590Z,1009.60
2023-01-01T10:07:57.587Z,1009.61
2023-01-01T10:08:57.580Z,1009.59
2023-01-01T10:09:57.596Z,1009.64
2023-01-01T10:10:57.535Z,1009.55
2023-01-01T10:11:57.534Z,1009.54
2023-01-01T10:12:57.505Z,1009.51
2023-01-01T10:13:57.506Z,1009.50
2023-01-01T10:15:00.839Z,1009.55
2023-01-01T10:15:57.486Z,1009.60
2023-01-01T10:16:57.521Z,1009.64
2023-01-01T10:17:57.453Z,1009.60
2023-01-01T10:18:57.444Z,1009.59
2023-01-01T10:19:57.424Z,1009.64
2023-01-01T10:20:57.413Z,1009.59
2023-01-01T10:21:57.414Z,1009.50
2023-01-01T10:22:57.389Z,1009.55
2023-01-01T10:23:57.425Z,1009.56
2023-01-01T10:24:57.399Z,1009.64
2023-01-01T10:25:57.391Z,1009.58
2023-01-01T10:26:57.343Z,1009.57
2023-01-01T10:27:59.642Z,1009.67
2023-01-01T10:28:57.340Z,1009.70
2023-01-01T10:30:03.488Z,1009.68
2023-01-01T10:30:58.303Z,1009.72
2023-01-01T10:31:57.347Z,1009.70
2023-01-01T10:32:57.281Z,1009.73
2023-01-01T10:33:57.284Z,1009.69
2023-01-01T10:34:57.257Z,1009.69
2023-01-01T10:35:57.260Z,1009.69
2023-01-01T10:36:57.257Z,1009.67
2023-01-01T10:37:57.236Z,1009.60
2023-01-01T10:38:57.233Z,1009.59
2023-01-01T10:39:57.206Z,1009.60
2023-01-01T10:40:57.208Z,1009.67
2023-01-01T10:41:57.200Z,1009.60
2023-01-01T10:42:57.191Z,1009.67
2023-01-01T10:43:57.179Z,1009.56
2023-01-01T10:44:57.147Z,1009.66
2023-01-01T10:45:57.188Z,1009.63
2023-01-01T10:46:57.116Z,1009.65
2023-01-01T10:47:57.132Z,1009.62
2023-01-01T10:48:57.119Z,1009.64
2023-01-01T10:49:57.112Z,1009.62
2023-01-01T10:50:57.082Z,1009.55
2023-01-01T10:51:57.062Z,1009.52
2023-01-01T10:52:57.054Z,1009.48
2023-01-01T10:53:57.051Z,1009.44
2023-01-01T10:54:57.047Z,1009.40
2023-01-01T10:55:57.030Z,1009.40
2023-01-01T10:56:57.020Z,1009.40
2023-01-01T10:57:57.023Z,1009.43
2023-01-01T10:58:56.999Z,1009.48
2023-01-01T10:59:56.977Z,1009.48
2023-01-01T11:00:57.019Z,1009.45
2023-01-01T11:01:57.055Z,1009.46
2023-01-01T11:02:56.979Z,1009.38
2023-01-01T11:03:56.933Z,1009.43
2023-01-01T11:04:56.910Z,1009.39
2023-01-01T11:05:56.903Z,1009.42
2023-01-01T11:06:56.922Z,1009.42
2023-01-01T11:07:56.893Z,1009.40
2023-01-01T11:08:56.943Z,1009.38
2023-01-01T11:10:02.953Z,1009.38
2023-01-01T11:10:57.877Z,1009.37
2023-01-01T11:12:00.666Z,1009.39
2023-01-01T11:13:06.136Z,1009.39
2023-01-01T11:13:57.843Z,1009.45
2023-01-01T11:14:56.850Z,1009.52
2023-01-01T11:15:56.822Z,1009.51
2023-01-01T11:16:56.907Z,1009.52
2023-01-01T11:17:56.796Z,1009.56
2023-01-01T11:18:56.792Z,1009.52
2023-01-01T11:20:01.485Z,1009.51
2023-01-01T11:20:57.750Z,1009.46
2023-01-01T11:21:56.714Z,1009.41
2023-01-01T11:22:56.720Z,1009.41
2023-01-01T11:23:56.720Z,1009.41
2023-01-01T11:24:56.700Z,1009.41
2023-01-01T11:25:56.681Z,1009.45
2023-01-01T11:26:56.683Z,1009.45
2023-01-01T11:27:56.664Z,1009.53
2023-01-01T11:28:56.643Z,1009.58
2023-01-01T11:29:56.650Z,1009.64
2023-01-01T11:30:56.697Z,1009.65
2023-01-01T11:31:56.616Z,1009.67
2023-01-01T11:32:56.590Z,1009.57
2023-01-01T11:33:56.585Z,1009.58
2023-01-01T11:34:56.591Z,1009.56
2023-01-01T11:35:56.586Z,1009.60
2023-01-01T11:36:56.564Z,1009.58
2023-01-01T11:37:56.534Z,1009.57
2023-01-01T11:38:56.534Z,1009.65
2023-01-01T11:39:56.533Z,1009.62
2023-01-01T11:40:56.522Z,1009.69
2023-01-01T11:41:56.534Z,1009.63
2023-01-01T11:42:58.086Z,1009.64
2023-01-01T11:43:56.479Z,1009.56
2023-01-01T11:44:56.486Z,1009.59
2023-01-01T11:45:56.556Z,1009.49
2023-01-01T11:46:56.467Z,1009.54
2023-01-01T11:47:56.471Z,1009.52
2023-01-01T11:48:56.443Z,1009.50
2023-01-01T11:49:56.414Z,1009.53
2023-01-01T11:50:56.409Z,1009.47
2023-01-01T11:51:56.428Z,1009.45
2023-01-01T11:52:56.375Z,1009.48
2023-01-01T11:53:56.363Z,1009.46
2023-01-01T11:54:56.365Z,1009.49
2023-01-01T11:55:56.344Z,1009.60
2023-01-01T11:56:56.336Z,1009.55
2023-01-01T11:57:56.319Z,1009.53
2023-01-01T11:58:56.331Z,1009.58
2023-01-01T11:59:56.300Z,1009.62
2023-01-01T12:00:56.287Z,1009.58
2023-01-01T12:01:56.381Z,1009.56
2023-01-01T12:02:56.304Z,1009.55
2023-01-01T12:03:56.305Z,1009.47
2023-01-01T12:04:56.255Z,1009.44
2023-01-01T12:05:56.237Z,1009.46